ADDS METAR Data INFO
IDs: Format: Raw Decoded Include TAF

Data at: 1332 UTC 25 Sep 2017

KUTS 251305Z AUTO 00000KT 5SM BR SCT001 22/21 A2992 RMK AO2 T02220206
KUTS 251253Z AUTO 00000KT 4SM BR BKN001 22/20 A2992 RMK AO2 SLP126 T02170200
KUTS 251248Z AUTO 00000KT 5SM BR BKN002 22/20 A2992 RMK AO2
KUTS 251222Z AUTO 00000KT 2SM BR BKN002 21/20 A2991 RMK AO2 T02110200
KUTS 251202Z AUTO 00000KT 1/2SM FG VV003 22/20 A2991 RMK AO2 T02170200
KUTS 251153Z AUTO 00000KT 1SM BR VV003 22/20 A2991 RMK AO2 SLP123 T02170200 10256 20217 53012
KUTS 251150Z AUTO 00000KT 1 3/4SM BR FEW003 22/20 A2991 RMK AO2
KUTS 251053Z AUTO 00000KT 7SM CLR 22/21 A2989 RMK AO2 SLP116 T02220206
KUTS 250953Z AUTO 11003KT 10SM CLR 23/21 A2988 RMK AO2 SLP112 T02280206
KUTS 250853Z AUTO 00000KT 10SM CLR 24/22 A2987 RMK AO2 SLP110 T02390217 58005
KUTS 250753Z AUTO VRB03KT 10SM CLR 24/22 A2988 RMK AO2 SLP113 T02440217
KUTS 250653Z AUTO VRB03KT 10SM CLR 25/22 A2988 RMK AO2 SLP113 T02500217
KUTS 250553Z AUTO VRB04KT 10SM CLR 26/21 A2989 RMK AO2 SLP115 T02560211 10278 20244 403280217 58005
KUTS 250453Z AUTO 00000KT 10SM CLR 25/21 A2990 RMK AO2 SLP117 T02500206
KUTS 250353Z AUTO 00000KT 10SM CLR 25/21 A2991 RMK AO2 SLP121 T02500211
KUTS 250253Z AUTO 00000KT 10SM CLR 24/21 A2990 RMK AO2 SLP120 T02440211 51012
KUTS 250153Z AUTO VRB03KT 10SM CLR 26/21 A2990 RMK AO2 SLP119 T02610206
KUTS 250053Z AUTO VRB04KT 10SM OVC100 27/21 A2988 RMK AO2 SLP113 T02720206
KUTS 242353Z AUTO 18004KT 10SM BKN045 BKN075 OVC100 26/22 A2987 RMK AO2 SLP110 T02610217 10328 20261 53005
KUTS 242253Z AUTO 16005KT 10SM FEW085 BKN110 30/19 A2986 RMK AO2 SLP104 T03000189
KUTS 242153Z AUTO VRB04KT 10SM FEW043 31/20 A2985 RMK AO2 SLP102 T03110200
KUTS 242053Z AUTO 09003KT 10SM FEW070 SCT080 32/19 A2986 RMK AO2 SLP104 T03220189 56023
KUTS 241953Z AUTO VRB04KT 10SM SCT047 32/19 A2988 RMK AO2 SLP111 T03170189
KUTS 241853Z AUTO VRB05KT 10SM FEW042 31/19 A2990 RMK AO2 SLP120 T03110194
KUTS 241753Z AUTO VRB04KT 10SM FEW039 31/19 A2992 RMK AO2 SLP128 T03060194 10306 20217 58005
KUTS 241653Z AUTO VRB04KT 10SM FEW030 30/20 A2994 RMK AO2 SLP131 T03000200
KUTS 241625Z AUTO VRB04KT 10SM SCT026 29/21 A2994 RMK AO2 T02940206
KUTS 241612Z AUTO VRB04KT 10SM BKN024 BKN029 28/21 A2994 RMK AO2 T02830211
KUTS 241553Z AUTO VRB03KT 10SM SCT023 SCT029 28/22 A2994 RMK AO2 SLP133 T02830217
KUTS 241453Z AUTO VRB03KT 10SM FEW014 27/22 A2994 RMK AO2 SLP133 T02720222 53012
KUTS 241353Z AUTO 09003KT 7SM FEW002 25/22 A2993 RMK AO2 SLP128 T02500222
KUTS 241326Z AUTO 09004KT 5SM BR SCT002 24/22 A2992 RMK AO2 T02390217
KUTS 241253Z AUTO 00000KT 3SM BR CLR 23/21 A2991 RMK AO2 SLP125 T02280206
KUTS 241242Z AUTO 00000KT 3SM BR CLR 22/21 A2991 RMK AO2 T02220206
KUTS 241231Z AUTO 00000KT 2SM BR CLR 22/21 A2991 RMK AO2 T02220206
KUTS 241153Z AUTO 00000KT 5SM BR CLR 22/21 A2990 RMK AO2 SLP121 T02220206 10256 20222 55000
KUTS 241053Z AUTO 00000KT 7SM CLR 22/21 A2990 RMK AO2 SLP119 T02220206
KUTS 240953Z AUTO 00000KT 10SM CLR 24/22 A2990 RMK AO2 SLP120 T02440222
KUTS 240853Z AUTO 00000KT 10SM CLR 25/22 A2990 RMK AO2 SLP121 T02500222 51003
KUTS 240753Z AUTO 00000KT 10SM CLR 25/22 A2990 RMK AO2 SLP119 T02500217
KUTS 240653Z AUTO VRB03KT 10SM CLR 26/22 A2990 RMK AO2 SLP120 T02560217
KUTS 240553Z AUTO 16004KT 10SM CLR 26/22 A2989 RMK AO2 SLP117 T02560217 10294 20256 403280211 58000